sensor_id;sensor_type;location;lat;lon;timestamp;temperature;humidity
69281;SHT31;56392;51.082;17.080;2023-08-08T00:00:19;15.73;68.71
69281;SHT31;56392;51.082;17.080;2023-08-08T00:06:03;15.81;68.43
69281;SHT31;56392;51.082;17.080;2023-08-08T00:11:26;15.82;68.40
69281;SHT31;56392;51.082;17.080;2023-08-08T00:16:50;15.91;68.39
69281;SHT31;56392;51.082;17.080;2023-08-08T00:22:14;15.96;68.34
69281;SHT31;56392;51.082;17.080;2023-08-08T00:27:38;15.92;68.02
69281;SHT31;56392;51.082;17.080;2023-08-08T00:33:05;15.89;67.99
69281;SHT31;56392;51.082;17.080;2023-08-08T00:38:30;15.92;67.84
69281;SHT31;56392;51.082;17.080;2023-08-08T00:43:53;15.88;67.66
69281;SHT31;56392;51.082;17.080;2023-08-08T00:49:16;15.88;67.67
69281;SHT31;56392;51.082;17.080;2023-08-08T00:54:41;15.83;67.54
69281;SHT31;56392;51.082;17.080;2023-08-08T01:00:06;15.83;67.66
69281;SHT31;56392;51.082;17.080;2023-08-08T01:05:35;15.77;67.67
69281;SHT31;56392;51.082;17.080;2023-08-08T01:11:04;15.72;67.69
69281;SHT31;56392;51.082;17.080;2023-08-08T01:16:28;15.62;67.80
69281;SHT31;56392;51.082;17.080;2023-08-08T01:21:53;15.54;68.10
69281;SHT31;56392;51.082;17.080;2023-08-08T01:27:18;15.45;68.48
69281;SHT31;56392;51.082;17.080;2023-08-08T01:32:41;15.40;68.51
69281;SHT31;56392;51.082;17.080;2023-08-08T01:38:09;15.30;68.61
69281;SHT31;56392;51.082;17.080;2023-08-08T01:43:37;15.17;68.93
69281;SHT31;56392;51.082;17.080;2023-08-08T01:49:01;15.17;68.85
69281;SHT31;56392;51.082;17.080;2023-08-08T01:54:24;15.11;68.69
69281;SHT31;56392;51.082;17.080;2023-08-08T01:59:49;15.08;69.05
69281;SHT31;56392;51.082;17.080;2023-08-08T02:05:13;15.04;69.40
69281;SHT31;56392;51.082;17.080;2023-08-08T02:10:38;14.93;69.30
69281;SHT31;56392;51.082;17.080;2023-08-08T02:16:03;14.91;69.33
69281;SHT31;56392;51.082;17.080;2023-08-08T02:21:26;14.80;70.48
69281;SHT31;56392;51.082;17.080;2023-08-08T02:26:50;14.76;69.67
69281;SHT31;56392;51.082;17.080;2023-08-08T02:32:14;14.70;69.83
69281;SHT31;56392;51.082;17.080;2023-08-08T02:37:38;14.68;69.96
69281;SHT31;56392;51.082;17.080;2023-08-08T02:43:01;14.65;69.72
69281;SHT31;56392;51.082;17.080;2023-08-08T02:48:25;14.59;69.93
69281;SHT31;56392;51.082;17.080;2023-08-08T02:53:49;14.52;69.64
69281;SHT31;56392;51.082;17.080;2023-08-08T02:59:12;14.49;69.58
69281;SHT31;56392;51.082;17.080;2023-08-08T03:04:37;14.46;69.32
69281;SHT31;56392;51.082;17.080;2023-08-08T03:10:00;14.48;69.30
69281;SHT31;56392;51.082;17.080;2023-08-08T03:15:23;14.49;69.38
69281;SHT31;56392;51.082;17.080;2023-08-08T03:20:48;14.48;69.02
69281;SHT31;56392;51.082;17.080;2023-08-08T03:26:11;14.42;69.36
69281;SHT31;56392;51.082;17.080;2023-08-08T03:31:34;14.38;69.35
69281;SHT31;56392;51.082;17.080;2023-08-08T03:36:58;14.33;69.11
69281;SHT31;56392;51.082;17.080;2023-08-08T03:42:22;14.33;69.31
69281;SHT31;56392;51.082;17.080;2023-08-08T03:47:45;14.31;69.19
69281;SHT31;56392;51.082;17.080;2023-08-08T03:53:10;14.28;69.15
69281;SHT31;56392;51.082;17.080;2023-08-08T03:58:33;14.26;69.09
69281;SHT31;56392;51.082;17.080;2023-08-08T04:03:56;14.31;69.21
69281;SHT31;56392;51.082;17.080;2023-08-08T04:09:21;14.28;69.43
69281;SHT31;56392;51.082;17.080;2023-08-08T04:14:44;14.31;69.43
69281;SHT31;56392;51.082;17.080;2023-08-08T04:20:07;14.33;69.34
69281;SHT31;56392;51.082;17.080;2023-08-08T04:25:33;14.43;69.44
69281;SHT31;56392;51.082;17.080;2023-08-08T04:30:56;14.46;69.12
69281;SHT31;56392;51.082;17.080;2023-08-08T04:36:19;14.68;68.42
69281;SHT31;56392;51.082;17.080;2023-08-08T04:41:43;14.87;68.07
69281;SHT31;56392;51.082;17.080;2023-08-08T04:47:06;14.99;67.41
69281;SHT31;56392;51.082;17.080;2023-08-08T04:52:30;15.20;66.70
69281;SHT31;56392;51.082;17.080;2023-08-08T04:57:55;15.30;66.35
69281;SHT31;56392;51.082;17.080;2023-08-08T05:03:18;15.37;66.38
69281;SHT31;56392;51.082;17.080;2023-08-08T05:08:41;15.86;65.49
69281;SHT31;56392;51.082;17.080;2023-08-08T05:14:06;16.17;64.77
69281;SHT31;56392;51.082;17.080;2023-08-08T05:19:29;16.22;64.29
69281;SHT31;56392;51.082;17.080;2023-08-08T05:24:52;16.24;63.62
69281;SHT31;56392;51.082;17.080;2023-08-08T05:30:16;16.27;63.78
69281;SHT31;56392;51.082;17.080;2023-08-08T05:35:40;16.41;63.74
69281;SHT31;56392;51.082;17.080;2023-08-08T05:41:03;16.54;63.64
69281;SHT31;56392;51.082;17.080;2023-08-08T05:46:28;16.71;63.41
69281;SHT31;56392;51.082;17.080;2023-08-08T05:51:51;17.07;63.02
69281;SHT31;56392;51.082;17.080;2023-08-08T05:57:14;17.91;61.00
69281;SHT31;56392;51.082;17.080;2023-08-08T06:02:39;18.61;59.73
69281;SHT31;56392;51.082;17.080;2023-08-08T06:08:02;18.69;58.53
69281;SHT31;56392;51.082;17.080;2023-08-08T06:13:30;19.10;57.99
69281;SHT31;56392;51.082;17.080;2023-08-08T06:18:54;19.63;56.99
69281;SHT31;56392;51.082;17.080;2023-08-08T06:24:18;19.53;56.66
69281;SHT31;56392;51.082;17.080;2023-08-08T06:29:41;19.20;56.66
69281;SHT31;56392;51.082;17.080;2023-08-08T06:35:07;19.30;56.95
69281;SHT31;56392;51.082;17.080;2023-08-08T06:40:30;19.49;54.59
69281;SHT31;56392;51.082;17.080;2023-08-08T06:45:53;19.88;54.65
69281;SHT31;56392;51.082;17.080;2023-08-08T06:51:18;20.25;53.80
69281;SHT31;56392;51.082;17.080;2023-08-08T06:56:41;20.47;52.77
69281;SHT31;56392;51.082;17.080;2023-08-08T07:02:05;21.04;49.88
69281;SHT31;56392;51.082;17.080;2023-08-08T07:07:29;21.76;48.20
69281;SHT31;56392;51.082;17.080;2023-08-08T07:12:55;21.61;48.24
69281;SHT31;56392;51.082;17.080;2023-08-08T07:18:18;21.38;49.62
69281;SHT31;56392;51.082;17.080;2023-08-08T07:23:42;21.20;48.47
69281;SHT31;56392;51.082;17.080;2023-08-08T07:29:06;21.21;49.53
69281;SHT31;56392;51.082;17.080;2023-08-08T07:34:29;21.20;49.03
69281;SHT31;56392;51.082;17.080;2023-08-08T07:39:53;20.97;47.87
69281;SHT31;56392;51.082;17.080;2023-08-08T07:45:18;20.73;49.07
69281;SHT31;56392;51.082;17.080;2023-08-08T07:50:41;20.57;47.76
69281;SHT31;56392;51.082;17.080;2023-08-08T07:56:06;20.32;49.10
69281;SHT31;56392;51.082;17.080;2023-08-08T08:01:29;21.14;46.81
69281;SHT31;56392;51.082;17.080;2023-08-08T08:06:52;21.46;45.61
69281;SHT31;56392;51.082;17.080;2023-08-08T08:12:17;21.55;46.20
69281;SHT31;56392;51.082;17.080;2023-08-08T08:17:41;21.55;45.74
69281;SHT31;56392;51.082;17.080;2023-08-08T08:23:04;21.25;44.39
69281;SHT31;56392;51.082;17.080;2023-08-08T08:28:28;21.41;43.47
69281;SHT31;56392;51.082;17.080;2023-08-08T08:33:52;21.32;44.53
69281;SHT31;56392;51.082;17.080;2023-08-08T08:39:16;21.56;44.84
69281;SHT31;56392;51.082;17.080;2023-08-08T08:44:43;21.78;43.85
69281;SHT31;56392;51.082;17.080;2023-08-08T08:50:07;21.23;44.31
69281;SHT31;56392;51.082;17.080;2023-08-08T08:55:32;21.24;44.30
69281;SHT31;56392;51.082;17.080;2023-08-08T09:00:58;21.21;44.51
69281;SHT31;56392;51.082;17.080;2023-08-08T09:06:22;21.54;43.97
69281;SHT31;56392;51.082;17.080;2023-08-08T09:11:48;22.05;43.61
69281;SHT31;56392;51.082;17.080;2023-08-08T09:17:13;23.26;40.55
69281;SHT31;56392;51.082;17.080;2023-08-08T09:22:37;24.58;39.01
69281;SHT31;56392;51.082;17.080;2023-08-08T09:28:00;25.16;38.14
69281;SHT31;56392;51.082;17.080;2023-08-08T09:33:28;27.52;33.87
69281;SHT31;56392;51.082;17.080;2023-08-08T09:38:51;29.50;32.46
69281;SHT31;56392;51.082;17.080;2023-08-08T09:44:14;31.66;29.00
69281;SHT31;56392;51.082;17.080;2023-08-08T09:49:39;32.01;27.74
69281;SHT31;56392;51.082;17.080;2023-08-08T09:55:03;28.21;32.45
69281;SHT31;56392;51.082;17.080;2023-08-08T10:00:27;25.75;37.06
69281;SHT31;56392;51.082;17.080;2023-08-08T10:05:54;24.55;37.96
69281;SHT31;56392;51.082;17.080;2023-08-08T10:11:19;23.94;37.59
69281;SHT31;56392;51.082;17.080;2023-08-08T10:16:44;23.23;39.80
69281;SHT31;56392;51.082;17.080;2023-08-08T10:22:09;22.57;40.86
69281;SHT31;56392;51.082;17.080;2023-08-08T10:27:34;22.30;41.74
69281;SHT31;56392;51.082;17.080;2023-08-08T10:32:57;22.69;41.33
69281;SHT31;56392;51.082;17.080;2023-08-08T10:38:22;23.73;39.78
69281;SHT31;56392;51.082;17.080;2023-08-08T10:43:50;22.67;41.30
69281;SHT31;56392;51.082;17.080;2023-08-08T10:49:14;28.64;32.74
69281;SHT31;56392;51.082;17.080;2023-08-08T10:54:52;25.17;37.50
69281;SHT31;56392;51.082;17.080;2023-08-08T11:00:19;24.07;40.24
69281;SHT31;56392;51.082;17.080;2023-08-08T11:05:45;23.77;40.29
69281;SHT31;56392;51.082;17.080;2023-08-08T11:11:11;22.78;42.15
69281;SHT31;56392;51.082;17.080;2023-08-08T11:16:35;22.54;44.01
69281;SHT31;56392;51.082;17.080;2023-08-08T11:21:59;22.33;43.82
69281;SHT31;56392;51.082;17.080;2023-08-08T11:27:24;22.23;44.05
69281;SHT31;56392;51.082;17.080;2023-08-08T11:32:48;22.34;44.03
69281;SHT31;56392;51.082;17.080;2023-08-08T11:38:11;22.30;43.80
69281;SHT31;56392;51.082;17.080;2023-08-08T11:43:37;22.13;44.39
69281;SHT31;56392;51.082;17.080;2023-08-08T11:49:04;22.41;45.14
69281;SHT31;56392;51.082;17.080;2023-08-08T11:54:28;22.26;45.38
69281;SHT31;56392;51.082;17.080;2023-08-08T11:59:54;22.00;45.03
69281;SHT31;56392;51.082;17.080;2023-08-08T12:05:20;22.09;45.51
69281;SHT31;56392;51.082;17.080;2023-08-08T12:10:47;22.16;45.66
69281;SHT31;56392;51.082;17.080;2023-08-08T12:16:15;22.12;45.38
69281;SHT31;56392;51.082;17.080;2023-08-08T12:21:38;22.10;45.24
69281;SHT31;56392;51.082;17.080;2023-08-08T12:27:02;22.18;45.46
69281;SHT31;56392;51.082;17.080;2023-08-08T12:32:27;22.03;46.34
69281;SHT31;56392;51.082;17.080;2023-08-08T12:37:53;22.10;45.55
69281;SHT31;56392;51.082;17.080;2023-08-08T12:43:16;22.07;45.14
69281;SHT31;56392;51.082;17.080;2023-08-08T12:48:41;22.16;45.70
69281;SHT31;56392;51.082;17.080;2023-08-08T12:54:05;22.29;45.26
69281;SHT31;56392;51.082;17.080;2023-08-08T12:59:28;22.23;45.65
69281;SHT31;56392;51.082;17.080;2023-08-08T13:04:55;22.13;45.17
69281;SHT31;56392;51.082;17.080;2023-08-08T13:10:20;22.33;44.79
69281;SHT31;56392;51.082;17.080;2023-08-08T13:15:43;22.39;44.27
69281;SHT31;56392;51.082;17.080;2023-08-08T13:21:09;22.23;45.33
69281;SHT31;56392;51.082;17.080;2023-08-08T13:26:34;22.33;45.16
69281;SHT31;56392;51.082;17.080;2023-08-08T13:31:57;22.29;46.36
69281;SHT31;56392;51.082;17.080;2023-08-08T13:37:24;22.09;45.67
69281;SHT31;56392;51.082;17.080;2023-08-08T13:42:47;21.72;48.48
69281;SHT31;56392;51.082;17.080;2023-08-08T13:48:12;21.21;48.38
69281;SHT31;56392;51.082;17.080;2023-08-08T13:53:36;21.28;48.58
69281;SHT31;56392;51.082;17.080;2023-08-08T13:58:59;21.35;49.78
69281;SHT31;56392;51.082;17.080;2023-08-08T14:04:23;21.55;48.52
69281;SHT31;56392;51.082;17.080;2023-08-08T14:09:48;21.71;47.50
69281;SHT31;56392;51.082;17.080;2023-08-08T14:15:11;21.75;45.73
69281;SHT31;56392;51.082;17.080;2023-08-08T14:20:34;21.89;45.37
69281;SHT31;56392;51.082;17.080;2023-08-08T14:25:59;21.97;45.03
69281;SHT31;56392;51.082;17.080;2023-08-08T14:31:22;21.90;45.28
69281;SHT31;56392;51.082;17.080;2023-08-08T14:36:46;21.96;45.95
69281;SHT31;56392;51.082;17.080;2023-08-08T14:42:10;22.02;45.49
69281;SHT31;56392;51.082;17.080;2023-08-08T14:47:33;22.07;45.22
69281;SHT31;56392;51.082;17.080;2023-08-08T14:52:56;22.07;45.16
69281;SHT31;56392;51.082;17.080;2023-08-08T14:58:21;21.96;46.66
69281;SHT31;56392;51.082;17.080;2023-08-08T15:03:44;21.90;45.82
69281;SHT31;56392;51.082;17.080;2023-08-08T15:09:07;21.81;45.36
69281;SHT31;56392;51.082;17.080;2023-08-08T15:14:31;21.71;45.33
69281;SHT31;56392;51.082;17.080;2023-08-08T15:19:55;21.67;45.61
69281;SHT31;56392;51.082;17.080;2023-08-08T15:25:19;21.59;45.91
69281;SHT31;56392;51.082;17.080;2023-08-08T15:30:44;21.59;46.13
69281;SHT31;56392;51.082;17.080;2023-08-08T15:36:08;21.63;46.64
69281;SHT31;56392;51.082;17.080;2023-08-08T15:41:32;21.55;46.74
69281;SHT31;56392;51.082;17.080;2023-08-08T15:46:58;21.46;47.13
69281;SHT31;56392;51.082;17.080;2023-08-08T15:52:21;21.66;46.75
69281;SHT31;56392;51.082;17.080;2023-08-08T15:57:44;21.59;46.90
69281;SHT31;56392;51.082;17.080;2023-08-08T16:03:09;21.54;46.76
69281;SHT31;56392;51.082;17.080;2023-08-08T16:08:32;21.55;47.36
69281;SHT31;56392;51.082;17.080;2023-08-08T16:13:56;21.54;47.35
69281;SHT31;56392;51.082;17.080;2023-08-08T16:19:20;21.46;47.14
69281;SHT31;56392;51.082;17.080;2023-08-08T16:24:44;21.37;48.05
69281;SHT31;56392;51.082;17.080;2023-08-08T16:30:08;21.24;48.32
69281;SHT31;56392;51.082;17.080;2023-08-08T16:35:35;21.05;49.24
69281;SHT31;56392;51.082;17.080;2023-08-08T16:40:58;20.94;50.86
69281;SHT31;56392;51.082;17.080;2023-08-08T16:46:21;20.81;50.09
69281;SHT31;56392;51.082;17.080;2023-08-08T16:51:46;20.74;50.78
69281;SHT31;56392;51.082;17.080;2023-08-08T16:57:09;20.62;51.58
69281;SHT31;56392;51.082;17.080;2023-08-08T17:02:33;20.49;52.10
69281;SHT31;56392;51.082;17.080;2023-08-08T17:07:58;20.35;53.44
69281;SHT31;56392;51.082;17.080;2023-08-08T17:13:21;20.32;53.24
69281;SHT31;56392;51.082;17.080;2023-08-08T17:18:44;20.24;53.56
69281;SHT31;56392;51.082;17.080;2023-08-08T17:24:11;20.15;54.69
69281;SHT31;56392;51.082;17.080;2023-08-08T17:29:34;20.01;55.60
69281;SHT31;56392;51.082;17.080;2023-08-08T17:34:57;19.88;55.18
69281;SHT31;56392;51.082;17.080;2023-08-08T17:40:22;19.74;57.40
69281;SHT31;56392;51.082;17.080;2023-08-08T17:45:45;19.65;56.37
69281;SHT31;56392;51.082;17.080;2023-08-08T17:51:07;19.50;57.02
69281;SHT31;56392;51.082;17.080;2023-08-08T17:56:32;19.44;57.22
69281;SHT31;56392;51.082;17.080;2023-08-08T18:01:55;19.40;57.41
69281;SHT31;56392;51.082;17.080;2023-08-08T18:07:18;19.33;57.92
69281;SHT31;56392;51.082;17.080;2023-08-08T18:12:44;19.24;58.93
69281;SHT31;56392;51.082;17.080;2023-08-08T18:18:07;18.89;63.03
69281;SHT31;56392;51.082;17.080;2023-08-08T18:23:30;18.76;63.28
69281;SHT31;56392;51.082;17.080;2023-08-08T18:28:56;18.71;62.24
69281;SHT31;56392;51.082;17.080;2023-08-08T18:34:21;18.72;61.53
69281;SHT31;56392;51.082;17.080;2023-08-08T18:39:44;18.73;60.45
69281;SHT31;56392;51.082;17.080;2023-08-08T18:45:09;18.63;62.18
69281;SHT31;56392;51.082;17.080;2023-08-08T18:50:32;18.52;63.09
69281;SHT31;56392;51.082;17.080;2023-08-08T18:55:56;18.32;64.43
69281;SHT31;56392;51.082;17.080;2023-08-08T19:01:21;18.17;62.19
69281;SHT31;56392;51.082;17.080;2023-08-08T19:06:44;17.69;65.49
69281;SHT31;56392;51.082;17.080;2023-08-08T19:12:09;17.26;68.69
69281;SHT31;56392;51.082;17.080;2023-08-08T19:17:34;17.26;69.79
69281;SHT31;56392;51.082;17.080;2023-08-08T19:22:57;17.22;71.84
69281;SHT31;56392;51.082;17.080;2023-08-08T19:28:21;17.16;73.09
69281;SHT31;56392;51.082;17.080;2023-08-08T19:33:45;17.01;74.36
69281;SHT31;56392;51.082;17.080;2023-08-08T19:39:09;16.74;76.30
69281;SHT31;56392;51.082;17.080;2023-08-08T19:44:32;16.59;76.23
69281;SHT31;56392;51.082;17.080;2023-08-08T19:49:56;16.51;76.98
69281;SHT31;56392;51.082;17.080;2023-08-08T19:55:19;16.39;78.08
69281;SHT31;56392;51.082;17.080;2023-08-08T20:00:42;16.40;78.58
69281;SHT31;56392;51.082;17.080;2023-08-08T20:06:07;16.39;79.18
69281;SHT31;56392;51.082;17.080;2023-08-08T20:11:30;16.50;78.58
69281;SHT31;56392;51.082;17.080;2023-08-08T20:16:53;16.50;78.35
69281;SHT31;56392;51.082;17.080;2023-08-08T20:22:17;16.49;78.50
69281;SHT31;56392;51.082;17.080;2023-08-08T20:27:41;16.44;78.51
69281;SHT31;56392;51.082;17.080;2023-08-08T20:33:04;16.47;78.52
69281;SHT31;56392;51.082;17.080;2023-08-08T20:38:29;16.47;78.47
69281;SHT31;56392;51.082;17.080;2023-08-08T20:43:52;16.47;79.38
69281;SHT31;56392;51.082;17.080;2023-08-08T20:49:16;16.46;79.42
69281;SHT31;56392;51.082;17.080;2023-08-08T20:54:41;16.34;80.30
69281;SHT31;56392;51.082;17.080;2023-08-08T21:00:05;16.30;79.82
69281;SHT31;56392;51.082;17.080;2023-08-08T21:05:29;16.34;78.94
69281;SHT31;56392;51.082;17.080;2023-08-08T21:10:54;16.46;77.60
69281;SHT31;56392;51.082;17.080;2023-08-08T21:16:17;16.64;75.49
69281;SHT31;56392;51.082;17.080;2023-08-08T21:21:40;16.75;74.17
69281;SHT31;56392;51.082;17.080;2023-08-08T21:27:05;16.81;74.43
69281;SHT31;56392;51.082;17.080;2023-08-08T21:32:28;16.74;76.42
69281;SHT31;56392;51.082;17.080;2023-08-08T21:37:51;16.71;76.60
69281;SHT31;56392;51.082;17.080;2023-08-08T21:43:15;16.74;75.96
69281;SHT31;56392;51.082;17.080;2023-08-08T21:48:38;16.68;76.62
69281;SHT31;56392;51.082;17.080;2023-08-08T21:54:01;16.61;76.06
69281;SHT31;56392;51.082;17.080;2023-08-08T21:59:26;16.50;77.32
69281;SHT31;56392;51.082;17.080;2023-08-08T22:04:49;16.41;77.19
69281;SHT31;56392;51.082;17.080;2023-08-08T22:10:12;16.49;76.17
69281;SHT31;56392;51.082;17.080;2023-08-08T22:15:39;16.47;76.39
69281;SHT31;56392;51.082;17.080;2023-08-08T22:21:02;16.49;75.32
69281;SHT31;56392;51.082;17.080;2023-08-08T22:26:25;16.44;75.75
69281;SHT31;56392;51.082;17.080;2023-08-08T22:31:49;16.46;74.78
69281;SHT31;56392;51.082;17.080;2023-08-08T22:37:12;16.46;75.86
69281;SHT31;56392;51.082;17.080;2023-08-08T22:42:35;16.41;76.02
69281;SHT31;56392;51.082;17.080;2023-08-08T22:48:00;16.40;74.48
69281;SHT31;56392;51.082;17.080;2023-08-08T22:53:23;16.34;75.07
69281;SHT31;56392;51.082;17.080;2023-08-08T22:58:46;16.34;75.18
69281;SHT31;56392;51.082;17.080;2023-08-08T23:04:11;16.29;75.79
69281;SHT31;56392;51.082;17.080;2023-08-08T23:09:34;16.29;74.57
69281;SHT31;56392;51.082;17.080;2023-08-08T23:14:58;16.26;73.76
69281;SHT31;56392;51.082;17.080;2023-08-08T23:20:23;16.22;74.99
69281;SHT31;56392;51.082;17.080;2023-08-08T23:25:46;15.99;76.17
69281;SHT31;56392;51.082;17.080;2023-08-08T23:31:10;15.85;75.97
69281;SHT31;56392;51.082;17.080;2023-08-08T23:36:34;15.79;75.89
69281;SHT31;56392;51.082;17.080;2023-08-08T23:41:57;15.81;76.66
69281;SHT31;56392;51.082;17.080;2023-08-08T23:47:20;15.86;77.20
69281;SHT31;56392;51.082;17.080;2023-08-08T23:52:45;15.91;77.07
69281;SHT31;56392;51.082;17.080;2023-08-08T23:58:08;15.93;77.17
